createdAt,value
2023-09-28T00:01:55.754Z,97118.59
2023-09-28T00:04:22.433Z,97136.00
2023-09-28T00:06:49.018Z,97078.94
2023-09-28T00:09:15.623Z,97118.41
2023-09-28T00:11:42.140Z,97111.53
2023-09-28T00:14:08.800Z,97138.34
2023-09-28T00:16:35.460Z,97151.63
2023-09-28T00:19:02.032Z,97137.69
2023-09-28T00:21:28.608Z,97122.97
2023-09-28T00:23:55.382Z,97146.22
2023-09-28T00:26:22.300Z,97155.38
2023-09-28T00:28:48.970Z,97129.13
2023-09-28T00:31:15.602Z,97125.34
2023-09-28T00:33:42.199Z,97119.78
2023-09-28T00:36:09.222Z,97140.84
2023-09-28T00:38:35.799Z,97118.41
2023-09-28T00:41:02.420Z,97130.28
2023-09-28T00:43:28.976Z,97118.19
2023-09-28T00:45:55.527Z,97123.06
2023-09-28T00:48:22.119Z,97131.72
2023-09-28T00:50:50.630Z,97130.56
2023-09-28T00:53:19.206Z,97154.34
2023-09-28T00:55:45.924Z,97140.66
2023-09-28T00:58:12.499Z,97115.16
2023-09-28T01:00:39.048Z,97144.09
2023-09-28T01:03:05.887Z,97131.28
2023-09-28T01:05:32.768Z,97137.34
2023-09-28T01:08:08.559Z,97150.25
2023-09-28T01:10:35.378Z,97162.00
2023-09-28T01:13:03.414Z,97151.28
2023-09-28T01:15:29.998Z,97137.34
2023-09-28T01:17:56.623Z,97129.84
2023-09-28T01:20:23.222Z,97135.00
2023-09-28T01:22:50.135Z,97160.06
2023-09-28T01:25:17.646Z,97163.88
2023-09-28T01:27:45.009Z,97168.97
2023-09-28T01:30:11.710Z,97142.63
2023-09-28T01:32:39.307Z,97173.56
2023-09-28T01:35:06.387Z,97145.59
2023-09-28T01:37:40.772Z,97177.13
2023-09-28T01:40:07.846Z,97171.50
2023-09-28T01:42:34.384Z,97171.56
2023-09-28T01:45:00.949Z,97167.25
2023-09-28T01:47:27.682Z,97159.72
2023-09-28T01:49:54.269Z,97171.81
2023-09-28T01:52:20.878Z,97150.91
2023-09-28T01:54:47.420Z,97143.81
2023-09-28T01:57:13.994Z,97147.09
2023-09-28T01:59:40.640Z,97156.75
2023-09-28T02:02:07.211Z,97145.13
2023-09-28T02:04:33.832Z,97173.72
2023-09-28T02:07:00.419Z,97152.75
2023-09-28T02:09:27.005Z,97142.53
2023-09-28T02:11:53.584Z,97167.00
2023-09-28T02:14:20.175Z,97149.88
2023-09-28T02:16:46.815Z,97142.34
2023-09-28T02:19:13.538Z,97175.53
2023-09-28T02:21:40.079Z,97191.88
2023-09-28T02:24:06.919Z,97141.25
2023-09-28T02:26:33.517Z,97167.22
2023-09-28T02:29:02.177Z,97138.41
2023-09-28T02:31:28.848Z,97187.44
2023-09-28T02:33:56.189Z,97155.13
2023-09-28T02:36:22.785Z,97164.38
2023-09-28T02:38:49.399Z,97173.22
2023-09-28T02:41:19.124Z,97194.03
2023-09-28T02:43:45.704Z,97164.44
2023-09-28T02:46:12.854Z,97169.13
2023-09-28T02:48:39.470Z,97169.75
2023-09-28T02:51:06.086Z,97193.97
2023-09-28T02:53:32.684Z,97169.75
2023-09-28T02:55:59.229Z,97203.59
2023-09-28T02:58:25.827Z,97175.88
2023-09-28T03:00:53.280Z,97207.91
2023-09-28T03:03:19.846Z,97178.47
2023-09-28T03:05:46.383Z,97188.81
2023-09-28T03:08:13.751Z,97196.66
2023-09-28T03:10:41.528Z,97198.19
2023-09-28T03:13:08.393Z,97190.19
2023-09-28T03:15:34.982Z,97178.38
2023-09-28T03:18:01.555Z,97183.19
2023-09-28T03:20:28.089Z,97178.84
2023-09-28T03:22:54.703Z,97165.06
2023-09-28T03:25:21.251Z,97182.78
2023-09-28T03:27:51.482Z,97187.91
2023-09-28T03:30:18.759Z,97169.13
2023-09-28T03:32:45.667Z,97192.75
2023-09-28T03:35:12.424Z,97226.13
2023-09-28T03:37:39.244Z,97175.00
2023-09-28T03:40:06.576Z,97182.38
2023-09-28T03:42:33.149Z,97210.19
2023-09-28T03:44:59.756Z,97173.88
2023-09-28T03:47:26.299Z,97205.56
2023-09-28T03:49:53.815Z,97183.47
2023-09-28T03:52:20.428Z,97192.88
2023-09-28T03:54:46.947Z,97209.78
2023-09-28T03:57:13.576Z,97204.38
2023-09-28T03:59:40.168Z,97198.53
2023-09-28T04:02:06.836Z,97181.81
2023-09-28T04:04:33.367Z,97197.63
2023-09-28T04:06:59.926Z,97202.47
2023-09-28T04:09:26.457Z,97200.56
2023-09-28T04:11:52.952Z,97194.47
2023-09-28T04:14:19.572Z,97199.00
2023-09-28T04:16:46.238Z,97207.63
2023-09-28T04:19:12.877Z,97224.34
2023-09-28T04:21:39.489Z,97219.97
2023-09-28T04:24:06.422Z,97219.91
2023-09-28T04:26:33.022Z,97198.00
2023-09-28T04:28:59.610Z,97230.59
2023-09-28T04:31:26.437Z,97253.25
2023-09-28T04:33:53.343Z,97214.44
2023-09-28T04:36:20.083Z,97209.69
2023-09-28T04:38:46.810Z,97204.06
2023-09-28T04:41:13.620Z,97208.59
2023-09-28T04:43:42.010Z,97208.50
2023-09-28T04:46:08.706Z,97233.75
2023-09-28T04:48:35.269Z,97231.94
2023-09-28T04:51:01.864Z,97229.50
2023-09-28T04:53:28.444Z,97215.97
2023-09-28T04:55:55.079Z,97230.19
2023-09-28T04:58:21.677Z,97229.09
2023-09-28T05:00:48.206Z,97256.13
2023-09-28T05:03:14.854Z,97234.31
2023-09-28T05:05:41.505Z,97247.28
2023-09-28T05:08:08.205Z,97238.84
2023-09-28T05:10:34.841Z,97243.91
2023-09-28T05:13:01.498Z,97247.03
2023-09-28T05:15:28.093Z,97252.66
2023-09-28T05:17:54.776Z,97257.78
2023-09-28T05:20:22.716Z,97236.81
2023-09-28T05:22:51.206Z,97267.78
2023-09-28T05:25:17.790Z,97240.72
2023-09-28T05:27:44.365Z,97250.91
2023-09-28T05:30:11.609Z,97265.47
2023-09-28T05:32:38.212Z,97273.53
2023-09-28T05:35:05.318Z,97263.22
2023-09-28T05:37:32.088Z,97270.72
2023-09-28T05:40:00.379Z,97252.84
2023-09-28T05:42:26.944Z,97250.69
2023-09-28T05:44:53.599Z,97257.56
2023-09-28T05:47:20.256Z,97260.25
2023-09-28T05:49:46.933Z,97287.69
2023-09-28T05:52:13.575Z,97271.97
2023-09-28T05:54:40.128Z,97297.50
2023-09-28T05:57:06.686Z,97276.19
2023-09-28T05:59:33.402Z,97262.66
2023-09-28T06:02:00.092Z,97304.09
2023-09-28T06:04:26.807Z,97278.53
2023-09-28T06:06:53.347Z,97257.38
2023-09-28T06:09:19.869Z,97276.47
2023-09-28T06:11:46.608Z,97276.81
2023-09-28T06:14:13.675Z,97280.53
2023-09-28T06:16:40.386Z,97294.03
2023-09-28T06:19:07.191Z,97307.69
2023-09-28T06:21:33.950Z,97299.34
2023-09-28T06:24:00.836Z,97355.16
2023-09-28T06:26:40.996Z,97293.66
2023-09-28T06:29:09.040Z,97301.00
2023-09-28T06:31:35.709Z,97307.94
2023-09-28T06:34:02.550Z,97305.75
2023-09-28T06:38:59.844Z,97295.00
2023-09-28T06:41:27.131Z,97276.66
2023-09-28T06:43:53.742Z,97303.81
2023-09-28T06:46:20.602Z,97300.91
2023-09-28T06:48:47.158Z,97323.31
2023-09-28T06:51:13.746Z,97304.50
2023-09-28T06:53:40.370Z,97289.97
2023-09-28T06:56:14.544Z,97315.91
2023-09-28T06:58:41.546Z,97284.50
2023-09-28T07:01:08.219Z,97308.59
2023-09-28T07:03:34.891Z,97329.34
2023-09-28T07:06:01.566Z,97314.72
2023-09-28T07:08:28.275Z,97324.19
2023-09-28T07:10:54.962Z,97295.44
2023-09-28T07:13:21.563Z,97325.78
2023-09-28T07:15:48.400Z,97300.47
2023-09-28T07:18:14.996Z,97295.03
2023-09-28T07:20:41.616Z,97307.13
2023-09-28T07:23:08.856Z,97334.13
2023-09-28T07:25:35.680Z,97331.91
2023-09-28T07:28:02.297Z,97354.00
2023-09-28T07:30:28.911Z,97355.50
2023-09-28T07:32:55.639Z,97327.97
2023-09-28T07:35:22.831Z,97337.59
2023-09-28T07:37:49.540Z,97342.53
2023-09-28T07:40:16.220Z,97371.59
2023-09-28T07:42:44.869Z,97346.19
2023-09-28T07:45:12.294Z,97377.38
2023-09-28T07:47:41.610Z,97345.28
2023-09-28T07:50:09.674Z,97356.16
2023-09-28T07:52:36.205Z,97347.19
2023-09-28T07:55:02.862Z,97345.91
2023-09-28T07:57:39.946Z,97359.25
2023-09-28T08:00:16.139Z,97369.38
2023-09-28T08:02:42.785Z,97353.69
2023-09-28T08:05:09.547Z,97366.84
2023-09-28T08:07:36.184Z,97370.84
2023-09-28T08:10:05.407Z,97382.81
2023-09-28T08:12:32.150Z,97358.00
2023-09-28T08:14:58.749Z,97368.78
2023-09-28T08:17:25.462Z,97408.78
2023-09-28T08:19:52.132Z,97389.72
2023-09-28T08:22:18.753Z,97377.03
2023-09-28T08:24:45.320Z,97381.09
2023-09-28T08:27:11.956Z,97381.03
2023-09-28T08:29:38.628Z,97400.31
2023-09-28T08:32:05.419Z,97386.75
2023-09-28T08:37:13.079Z,97411.44
2023-09-28T08:40:08.367Z,97393.41
2023-09-28T08:43:11.328Z,97372.13
2023-09-28T08:46:04.313Z,97376.91
2023-09-28T08:48:54.838Z,97372.09
2023-09-28T08:52:09.938Z,97376.31
2023-09-28T08:54:53.216Z,97377.09
2023-09-28T08:57:23.086Z,97385.41
2023-09-28T08:59:49.845Z,97370.16
2023-09-28T09:02:19.759Z,97383.09
2023-09-28T09:04:55.056Z,97357.53
2023-09-28T09:07:55.725Z,97363.69
2023-09-28T09:10:39.335Z,97359.28
2023-09-28T09:13:26.365Z,97368.31
2023-09-28T09:15:53.281Z,97377.13
2023-09-28T09:18:21.261Z,97361.66
2023-09-28T09:20:48.278Z,97350.25
2023-09-28T09:23:15.544Z,97372.09
2023-09-28T09:25:46.063Z,97344.47
2023-09-28T09:28:13.369Z,97363.00
2023-09-28T09:30:39.978Z,97373.16
2023-09-28T09:33:09.670Z,97399.84
2023-09-28T09:35:36.462Z,97342.25
2023-09-28T09:38:03.130Z,97344.59
2023-09-28T09:40:29.832Z,97356.47
2023-09-28T09:42:56.439Z,97339.88
2023-09-28T09:45:24.484Z,97335.91
2023-09-28T09:47:51.280Z,97345.03
2023-09-28T09:50:18.714Z,97360.38
2023-09-28T09:52:45.674Z,97358.00
2023-09-28T09:55:12.587Z,97357.84
2023-09-28T09:57:39.167Z,97335.69
2023-09-28T10:00:10.409Z,97331.03
2023-09-28T10:02:39.856Z,97323.28
2023-09-28T10:05:07.963Z,97318.34
2023-09-28T10:07:47.667Z,97314.97
2023-09-28T10:10:15.270Z,97315.31
2023-09-28T10:12:41.954Z,97333.13
2023-09-28T10:15:09.834Z,97324.44
2023-09-28T10:17:36.504Z,97320.38
2023-09-28T10:20:03.784Z,97313.25
2023-09-28T10:22:30.636Z,97326.94
2023-09-28T10:24:57.547Z,97313.69
2023-09-28T10:27:24.241Z,97316.16
2023-09-28T10:29:50.920Z,97340.22
2023-09-28T10:32:26.678Z,97318.78
2023-09-28T10:35:21.546Z,97302.38
2023-09-28T10:38:19.509Z,97312.47
2023-09-28T10:40:51.660Z,97331.50
2023-09-28T10:43:33.445Z,97336.66
2023-09-28T10:46:03.879Z,97343.63
2023-09-28T10:48:48.777Z,97304.34
2023-09-28T10:51:16.372Z,97327.34
2023-09-28T10:53:43.273Z,97337.53
2023-09-28T10:56:10.648Z,97296.59
2023-09-28T10:58:37.728Z,97333.13
2023-09-28T11:01:05.048Z,97301.88
2023-09-28T11:03:34.875Z,97314.44
2023-09-28T11:06:02.952Z,97307.66
2023-09-28T11:08:30.215Z,97333.63
2023-09-28T11:10:56.811Z,97324.50
2023-09-28T11:13:24.141Z,97302.47
2023-09-28T11:15:50.979Z,97303.91
2023-09-28T11:18:17.983Z,97319.50
2023-09-28T11:20:44.826Z,97315.00
2023-09-28T11:23:11.555Z,97290.47
2023-09-28T11:25:45.846Z,97298.56
2023-09-28T11:28:13.160Z,97297.41
2023-09-28T11:30:40.062Z,97334.09
2023-09-28T11:33:07.428Z,97275.16
2023-09-28T11:35:34.482Z,97295.50
2023-09-28T11:38:02.161Z,97306.63
2023-09-28T11:40:29.210Z,97299.38
2023-09-28T11:42:58.820Z,97296.66
2023-09-28T11:45:29.795Z,97295.41
2023-09-28T11:47:56.934Z,97308.66
2023-09-28T11:50:23.948Z,97299.75
2023-09-28T11:52:52.106Z,97315.34
2023-09-28T11:55:19.096Z,97321.97
2023-09-28T11:57:46.090Z,97374.66
2023-09-28T12:00:16.149Z,97321.81
2023-09-28T12:02:43.070Z,97299.59
2023-09-28T12:05:10.164Z,97307.63
2023-09-28T12:07:37.180Z,97311.97
2023-09-28T12:10:05.125Z,97296.22
2023-09-28T12:12:32.599Z,97268.44
2023-09-28T12:14:59.408Z,97295.81
2023-09-28T12:19:53.297Z,97279.75
2023-09-28T12:22:20.096Z,97287.31
2023-09-28T12:24:46.854Z,97299.91
2023-09-28T12:27:13.683Z,97277.56
2023-09-28T12:29:40.664Z,97284.09
2023-09-28T12:32:07.414Z,97266.34
2023-09-28T12:34:34.323Z,97260.38
2023-09-28T12:37:01.260Z,97282.66
2023-09-28T12:39:28.119Z,97263.13
2023-09-28T12:41:54.859Z,97257.84
2023-09-28T12:44:24.643Z,97263.50
2023-09-28T12:46:51.824Z,97286.06
2023-09-28T12:49:19.237Z,97256.09
2023-09-28T12:51:45.983Z,97254.84
2023-09-28T12:54:15.744Z,97161.31
2023-09-28T12:56:42.471Z,97249.41
2023-09-28T12:59:09.215Z,97254.66
2023-09-28T13:01:35.878Z,97228.50
2023-09-28T13:04:02.906Z,97246.72
2023-09-28T13:06:30.041Z,97241.72
2023-09-28T13:08:57.131Z,97245.94
2023-09-28T13:11:23.996Z,97292.72
2023-09-28T13:13:51.020Z,97250.53
2023-09-28T13:16:17.632Z,97224.56
2023-09-28T13:18:46.141Z,97229.66
2023-09-28T13:21:13.902Z,97243.88
2023-09-28T13:23:41.038Z,97246.47
2023-09-28T13:26:08.535Z,97242.03
2023-09-28T13:28:35.937Z,97260.00
2023-09-28T13:31:02.602Z,97215.53
2023-09-28T13:33:29.260Z,97213.09
2023-09-28T13:35:55.895Z,97207.72
2023-09-28T13:38:22.563Z,97206.00
2023-09-28T13:40:57.129Z,97251.72
2023-09-28T13:43:34.253Z,97220.56
2023-09-28T13:46:01.380Z,97242.69
2023-09-28T13:48:28.045Z,97111.25
2023-09-28T13:50:55.203Z,97235.13
2023-09-28T13:53:22.127Z,97234.03
2023-09-28T13:55:49.377Z,97242.63
2023-09-28T13:58:16.470Z,97224.50
2023-09-28T14:00:43.229Z,97212.38
2023-09-28T14:03:10.193Z,97243.97
2023-09-28T14:05:37.404Z,97265.00
2023-09-28T14:08:05.093Z,97253.22
2023-09-28T14:10:32.327Z,97250.72
2023-09-28T14:12:59.055Z,97229.41
2023-09-28T14:15:26.220Z,97239.66
2023-09-28T14:17:53.354Z,97218.47
2023-09-28T14:20:20.271Z,97261.16
2023-09-28T14:22:46.893Z,97198.81
2023-09-28T14:25:13.837Z,97152.88
2023-09-28T14:27:41.452Z,97218.44
2023-09-28T14:30:18.542Z,97245.13
2023-09-28T14:32:46.625Z,97179.72
2023-09-28T14:35:13.322Z,97230.88
2023-09-28T14:37:40.407Z,97201.31
2023-09-28T14:40:07.565Z,97197.38
2023-09-28T14:42:34.435Z,97224.94
2023-09-28T14:45:01.106Z,97217.91
2023-09-28T14:47:27.738Z,97212.25
2023-09-28T14:49:54.410Z,97198.06
2023-09-28T14:52:20.986Z,97214.22
2023-09-28T14:54:49.994Z,97208.53
2023-09-28T14:57:17.196Z,97173.50
2023-09-28T14:59:44.289Z,97183.34
2023-09-28T15:02:11.171Z,97220.19
2023-09-28T15:04:37.911Z,97186.44
2023-09-28T15:07:04.767Z,97205.84
2023-09-28T15:09:32.252Z,97200.63
2023-09-28T15:11:59.395Z,97191.34
2023-09-28T15:14:26.260Z,97197.88
2023-09-28T15:16:53.673Z,97175.44
2023-09-28T15:19:21.264Z,97201.19
2023-09-28T15:21:48.106Z,97193.31
2023-09-28T15:24:14.667Z,97183.19
2023-09-28T15:26:42.899Z,97167.81
2023-09-28T15:29:09.632Z,97186.03
2023-09-28T15:31:40.800Z,97180.22
2023-09-28T15:34:07.617Z,97208.53
2023-09-28T15:36:34.198Z,97196.06
2023-09-28T15:39:00.827Z,97175.81
2023-09-28T15:41:39.127Z,97164.25
2023-09-28T15:44:06.139Z,97169.97
2023-09-28T15:46:33.492Z,97165.00
2023-09-28T15:49:01.130Z,97165.06
2023-09-28T15:51:28.038Z,97181.13
2023-09-28T15:53:55.622Z,97191.66
2023-09-28T15:56:22.607Z,97171.97
2023-09-28T15:58:49.482Z,97169.88
2023-09-28T16:01:16.198Z,97193.53
2023-09-28T16:03:43.046Z,97212.22
2023-09-28T16:06:09.754Z,97192.34
2023-09-28T16:08:36.437Z,97189.00
2023-09-28T16:11:03.283Z,97178.75
2023-09-28T16:13:30.114Z,97178.81
2023-09-28T16:15:56.770Z,97202.13
2023-09-28T16:18:23.755Z,97194.63
2023-09-28T16:20:50.867Z,97182.38
2023-09-28T16:23:17.801Z,97196.88
2023-09-28T16:25:44.464Z,97152.50
2023-09-28T16:28:11.168Z,97197.16
2023-09-28T16:30:37.924Z,97164.50
2023-09-28T16:33:07.694Z,97191.13
2023-09-28T16:35:34.822Z,97194.38
2023-09-28T16:38:02.500Z,97209.66
2023-09-28T16:40:29.234Z,97179.59
2023-09-28T16:43:13.033Z,97221.56
2023-09-28T16:45:41.993Z,97183.06
2023-09-28T16:48:11.490Z,97191.50
2023-09-28T16:50:38.994Z,97187.84
2023-09-28T16:53:08.540Z,97198.06
2023-09-28T16:55:35.418Z,97195.19
2023-09-28T16:58:02.258Z,97192.59
2023-09-28T17:00:29.052Z,97239.59
2023-09-28T17:02:56.161Z,97177.16
2023-09-28T17:05:23.016Z,97192.59
2023-09-28T17:07:52.811Z,97190.97
2023-09-28T17:10:20.296Z,97219.16
2023-09-28T17:12:49.160Z,97228.63
2023-09-28T17:15:15.928Z,97220.03
2023-09-28T17:17:42.863Z,97207.09
2023-09-28T17:20:10.231Z,97210.13
2023-09-28T17:22:37.054Z,97210.06
2023-09-28T17:25:03.988Z,97241.69
2023-09-28T17:27:30.763Z,97235.66
2023-09-28T17:29:57.789Z,97229.28
2023-09-28T17:32:24.593Z,97197.75
2023-09-28T17:34:51.342Z,97213.19
2023-09-28T17:37:18.067Z,97214.78
2023-09-28T17:39:44.784Z,97232.25
2023-09-28T17:42:11.508Z,97216.91
2023-09-28T17:44:38.352Z,97210.84
2023-09-28T17:47:05.140Z,97215.66
2023-09-28T17:49:32.007Z,97247.81
2023-09-28T17:51:58.915Z,97244.75
2023-09-28T17:54:25.643Z,97255.34
2023-09-28T17:56:52.304Z,97248.91
2023-09-28T17:59:18.887Z,97251.81
2023-09-28T18:01:45.549Z,97254.81
2023-09-28T18:04:12.404Z,97257.88
2023-09-28T18:06:39.121Z,97246.31
2023-09-28T18:09:05.877Z,97213.84
2023-09-28T18:11:32.716Z,97273.31
2023-09-28T18:13:59.427Z,97249.66
2023-09-28T18:16:26.049Z,97262.44
2023-09-28T18:18:52.894Z,97285.31
2023-09-28T18:21:19.693Z,97261.94
2023-09-28T18:23:46.461Z,97271.66
2023-09-28T18:26:13.188Z,97282.34
2023-09-28T18:28:39.924Z,97291.38
2023-09-28T18:31:06.719Z,97280.84
2023-09-28T18:33:33.560Z,97264.28
2023-09-28T18:36:00.300Z,97299.22
2023-09-28T18:38:27.111Z,97271.38
2023-09-28T18:40:53.804Z,97267.31
2023-09-28T18:43:20.523Z,97285.03
2023-09-28T18:45:52.735Z,97283.16
2023-09-28T18:48:19.474Z,97296.78
2023-09-28T18:50:46.379Z,97282.91
2023-09-28T18:53:13.316Z,97309.47
2023-09-28T18:55:40.124Z,97267.38
2023-09-28T18:58:06.752Z,97284.94
2023-09-28T19:00:33.689Z,97287.22
2023-09-28T19:03:02.479Z,97317.72
2023-09-28T19:05:29.259Z,97293.78
2023-09-28T19:07:55.908Z,97295.91
2023-09-28T19:10:23.045Z,97213.91
2023-09-28T19:12:49.814Z,97292.00
2023-09-28T19:15:16.560Z,97284.41
2023-09-28T19:17:43.542Z,97299.28
2023-09-28T19:20:10.398Z,97269.00
2023-09-28T19:22:37.157Z,97295.28
2023-09-28T19:25:04.093Z,97291.25
2023-09-28T19:27:38.692Z,97280.84
2023-09-28T19:30:07.618Z,97315.53
2023-09-28T19:32:34.713Z,97289.19
2023-09-28T19:35:01.447Z,97321.66
2023-09-28T19:37:28.176Z,97275.66
2023-09-28T19:39:54.943Z,97291.09
2023-09-28T19:42:21.649Z,97289.19
2023-09-28T19:44:48.509Z,97269.66
2023-09-28T19:47:15.482Z,97302.53
2023-09-28T19:49:42.227Z,97301.72
2023-09-28T19:52:08.870Z,97305.81
2023-09-28T19:54:35.785Z,97298.94
2023-09-28T19:57:02.692Z,97297.09
2023-09-28T19:59:30.263Z,97300.91
2023-09-28T20:01:57.088Z,97291.19
2023-09-28T20:04:23.828Z,97308.22
2023-09-28T20:06:51.247Z,97304.88
2023-09-28T20:09:18.374Z,97296.97
2023-09-28T20:11:45.836Z,97294.47
2023-09-28T20:14:16.987Z,97287.69
2023-09-28T20:16:43.751Z,97300.69
2023-09-28T20:19:13.803Z,97276.03
2023-09-28T20:21:40.600Z,97283.94
2023-09-28T20:24:07.749Z,97282.22
2023-09-28T20:26:34.417Z,97293.03
2023-09-28T20:29:01.077Z,97282.22
2023-09-28T20:31:28.172Z,97319.69
2023-09-28T20:33:55.269Z,97283.59
2023-09-28T20:36:22.119Z,97325.72
2023-09-28T20:38:49.193Z,97303.41
2023-09-28T20:41:16.187Z,97302.41
2023-09-28T20:43:43.581Z,97295.91
2023-09-28T20:46:16.541Z,97306.66
2023-09-28T20:48:43.423Z,97290.50
2023-09-28T20:51:11.153Z,97304.53
2023-09-28T20:53:38.122Z,97313.66
2023-09-28T20:56:13.056Z,97323.03
2023-09-28T20:58:40.284Z,97318.22
2023-09-28T21:01:10.926Z,97306.97
2023-09-28T21:03:40.798Z,97307.03
2023-09-28T21:06:08.163Z,97278.53
2023-09-28T21:08:35.994Z,97292.19
2023-09-28T21:11:05.681Z,97304.06
2023-09-28T21:13:32.744Z,97304.91
2023-09-28T21:15:59.893Z,97298.00
2023-09-28T21:18:26.905Z,97294.63
2023-09-28T21:20:53.914Z,97320.75
2023-09-28T21:23:23.177Z,97296.66
2023-09-28T21:25:49.937Z,97304.09
2023-09-28T21:28:16.780Z,97286.22
2023-09-28T21:30:43.543Z,97292.19
2023-09-28T21:33:11.434Z,97327.38
2023-09-28T21:35:38.237Z,97301.56
2023-09-28T21:38:05.030Z,97293.72
2023-09-28T21:40:32.546Z,97283.16
2023-09-28T21:42:59.224Z,97323.19
2023-09-28T21:45:25.894Z,97308.06
2023-09-28T21:47:52.829Z,97291.13
2023-09-28T21:50:19.631Z,97305.16
2023-09-28T21:52:46.430Z,97296.88
2023-09-28T21:55:13.214Z,97287.22
2023-09-28T21:57:40.001Z,97322.66
2023-09-28T22:00:08.144Z,97330.84
2023-09-28T22:02:35.311Z,97312.00
2023-09-28T22:05:02.518Z,97317.19
2023-09-28T22:07:29.192Z,97309.53
2023-09-28T22:09:55.850Z,97316.81
2023-09-28T22:12:22.956Z,97323.47
2023-09-28T22:14:49.873Z,97305.13
2023-09-28T22:17:16.794Z,97324.63
2023-09-28T22:19:43.959Z,97332.72
2023-09-28T22:22:10.872Z,97298.63
2023-09-28T22:24:37.628Z,97317.53
2023-09-28T22:27:04.491Z,97329.13
2023-09-28T22:29:31.235Z,97324.28
2023-09-28T22:31:57.973Z,97300.13
2023-09-28T22:34:24.718Z,97289.41
2023-09-28T22:36:51.410Z,97305.94
2023-09-28T22:39:18.485Z,97335.28
2023-09-28T22:41:45.297Z,97335.44
2023-09-28T22:44:12.026Z,97329.81
2023-09-28T22:46:42.013Z,97333.53
2023-09-28T22:49:09.088Z,97332.81
2023-09-28T22:51:35.958Z,97339.28
2023-09-28T22:54:03.014Z,97324.53
2023-09-28T22:56:29.954Z,97326.28
2023-09-28T22:58:56.801Z,97320.28
2023-09-28T23:01:23.892Z,97348.81
2023-09-28T23:03:50.813Z,97319.78
2023-09-28T23:06:17.535Z,97339.34
2023-09-28T23:08:45.813Z,97346.38
2023-09-28T23:11:13.440Z,97335.38
2023-09-28T23:13:40.866Z,97336.47
2023-09-28T23:16:07.944Z,97299.91
2023-09-28T23:18:35.009Z,97352.50
2023-09-28T23:21:02.283Z,97343.94
2023-09-28T23:23:28.975Z,97320.63
2023-09-28T23:25:55.826Z,97331.59
2023-09-28T23:28:22.742Z,97306.06
2023-09-28T23:30:49.385Z,97337.56
2023-09-28T23:33:16.605Z,97311.16
2023-09-28T23:35:43.857Z,97353.22
2023-09-28T23:38:10.788Z,97360.59
2023-09-28T23:40:37.553Z,97350.06
2023-09-28T23:43:04.789Z,97352.28
2023-09-28T23:45:31.607Z,97343.41
2023-09-28T23:47:58.434Z,97336.66
2023-09-28T23:50:27.995Z,97318.44
2023-09-28T23:52:55.471Z,97322.16
2023-09-28T23:55:22.104Z,97324.66
2023-09-28T23:57:49.068Z,97334.94
